Pagina principale
METAR-TAF:

METAR-TAF

Aeroporti :

Gibilterra, Gibilterra

Aeroporto di Gibilterra

latitudine: 36-09N, longitudine: 005-21W, altezza: 5 m

Osservazione

Il bollettino è stato emesso 1 ora e 5 minuti fa, alle 12:50 UTC
Vento 10 kt da est/sud-est
Temperature 14°C
Umidità 67%
Pressione 1007 hPa
Visibilità 10 km o più
Nuvoloso ad un'altezza di 2500 ft

METAR: LXGB 241250Z 11010KT 9999 BKN025 14/08 Q1007 TEMPO SCT022

Ora: 14:55 (13:55 UTC)

Previsione

Il bollettino è stato emesso 3 ore e 33 minuti fa, alle 10:22 UTC
Previsione valida dal 24 alle 12 UTC al 24 alle 21 UTC
Vento 14 kt da est
Visibilità 10 km o più
Poco nuvoloso ad un'altezza di 2000 ft
Nubi sparse ad un'altezza di 2600 ft
Probabilità 30% :
Temporaneamente
dal 24 alle 12 UTC al 24 alle 21 UTC
Nuvoloso ad un'altezza di 2000 ft

TAF: LXGB 241022Z 2412/2421 09014KT 9999 FEW020 SCT026 PROB30 TEMPO 2412/2421 BKN020

Osservazioni e previsioni meteorologiche di più di 4000 aeroporti (messaggi METAR e TAF).

Le stazioni disponibili sono rappresentate dai dischi gialli e rossi sulla carta.

Puntare il mouse per vedere il nome della stazione.

Clicca sopra per visualizzare le osservazioni e previsioni meteorologiche.

Per cambiare la mappa : fare clic sui pulsanti verdi con una croce nera per ingrandire, il pulsante verde con un trattino per diminuire, o sulla freccia verde per le mappe adiacenti.


METAR-TAF: